Terminal Aerodrome Forecast
Issued by NWS Jackson, MS

Home | Current Version | Previous Version | Text Only | Print | Product List | Glossary On
Versions: 1 2 3 4 5 6 7 8 9 10 11 12 13 14 15
000
FTUS44 KJAN 211720
TAFMEI
TAF
KMEI 211720Z 2118/2218 10006KT P6SM SCT030
     FM212100 09005KT P6SM VCTS SCT040CB BKN100
     FM220000 VRB03KT P6SM FEW100 BKN250
     FM220900 14001KT P6SM BKN012
     FM221100 11001KT 4SM BR OVC007
     FM221500 25002KT P6SM OVC015=

USA.gov is the U.S. government's official web portal to all federal, state and local government web resources and services.